Station info - map view · info · telemetry · weather · raw · status · beacons · messages · bulletins · browse · moving · my account
Callsign, ship name or locator: Clear       
It is possible to search using wildcards (*?) after a prefix. Example: OH*
APRS station N44PH - show graphs
Map loading...
Comment: KJ4RZN-9 Vans RV6
Mic-E message: En route
Last status: MT8000FA v1.0
Location: 27°37.57' N 80°21.79' W - locator EL97TP60KG - show map - static map
2.3 miles East bearing 112° from Vero Beach, Indian River County, Florida, United States [?]
3.1 miles East bearing 78° from Vero Beach South, Indian River County, Florida, United States
23.0 miles North bearing 358° from Port Saint Lucie, Saint Lucie County, Florida, United States
88.3 miles Southeast bearing 135° from Orlando, Orange County, Florida, United States
Last position: 2018-07-08 09:30:37 EDT (8d 18h24m ago)
2018-07-08 09:30:37 EDT local time at Vero Beach, United States [?]
Altitude: 1181 ft
Course: 55°
Speed: 97 MPH
Last path: N44PH>RW3W5W via WC4PEM-10*,WIDE1*,WC4PEM-14*,WIDE2*,qAR,W4KBW (good)
Positions stored: 26955
Stations near current position of N44PH - show more
callsign distance last heard - EDT      callsign distance last heard - EDT
KM4RLE1.6 miles 284°2018-06-18 18:54:45 N4IRS-61.9 miles 5°2018-07-15 08:05:48
K9BTU2.0 miles 4°2018-07-10 20:50:42 DW72202.1 miles 238°2018-07-17 03:41:51
N4WRW2.2 miles 207°2018-07-10 20:32:19 K4CPJ B2.3 miles 292°2018-07-16 22:48:21
K4CPJ-B2.3 miles 292°2018-07-16 22:48:31 K4CPJ2.3 miles 292°2018-07-16 23:00:55
W4OT-32.5 miles 227°2018-07-17 03:48:38 KF4UJO2.5 miles 238°2018-06-19 20:53:37
WA4TCD-C2.5 miles 226°2018-07-17 03:37:28 WA4TCD C2.5 miles 226°2018-07-17 03:37:44
WA4TCD-B2.5 miles 226°2018-07-17 03:37:27 WA4TCD B2.5 miles 226°2018-07-17 03:37:42
K4VRB B2.9 miles 4°2018-07-17 03:37:35 K4VRB-B2.9 miles 4°2018-07-17 03:37:45
K4VRB2.9 miles 4°2018-07-17 03:34:37 K4VRB-R2.9 miles 4°2018-06-23 16:29:31
WA4MSU2.9 miles 263°2018-07-10 20:55:42 KK4ME3.3 miles 275°2018-07-10 10:14:15
Stations which heard N44PH directly on radio –
callsign pkts first heard - EDT last heard longest (tx => rx) longest at - EDT
K4OKE-3 11 2018-07-01 07:39:31 2018-07-08 09:12:46 EL97NG > EL97OF 6.8 miles 109° 2018-07-08 09:09:53
NI4CE-10 12 2018-07-01 07:25:34 2018-07-08 09:24:52 EL97SP > EL87VJ 111.6 miles 262° 2018-07-01 07:25:34
W4IZ-1 3 2018-07-01 07:30:35 2018-07-08 09:14:57 EL97OG > EL99IU 180.7 miles 350° 2018-07-08 09:13:58
WC4PEM-10 19 2018-07-01 07:24:34 2018-07-08 09:30:36 EL97TP > EL97CV 90.5 miles 282° 2018-07-08 09:30:36
WC4PEM-14 34 2018-07-01 07:24:38 2018-07-08 09:29:49 EL97TP > EL98EG 89.8 miles 299° 2018-07-08 09:29:49
WC4PEM-12 4 2018-07-01 07:38:32 2018-07-08 09:23:45 EL97SM > EL97FS 67.5 miles 284° 2018-07-08 09:23:45
WC4PEM-11 3 2018-07-01 07:30:37 2018-07-08 07:33:51 EL97SQ > EL97BR 90.3 miles 274° 2018-07-08 07:31:41
WC4PEM-15 10 2018-07-01 07:26:07 2018-07-08 09:30:45 EL97TP > EL98EA 80.1 miles 290° 2018-07-08 09:30:45
KQ4KX 1 2018-07-01 09:29:16 2018-07-01 09:29:16 EL97SQ > EL98CB 83.2 miles 289° 2018-07-01 09:29:16
K4PKT-3 6 2018-07-01 07:26:02 2018-07-08 09:27:06 EL97SP > EL96VT 59.3 miles 168° 2018-07-01 07:26:02
WC4PEM-13 7 2018-07-01 07:25:40 2018-07-08 09:30:48 EL97TP > EL97IS 60.1 miles 281° 2018-07-08 09:30:48
K4PKT-1 4 2018-07-08 07:44:47 2018-07-08 09:27:28 EL97TP > EL96NR 69.8 miles 207° 2018-07-08 09:27:28
W4MCO-10 7 2018-07-01 07:36:44 2018-07-08 09:17:03 EL97OG > EL98IO 96.0 miles 341° 2018-07-08 09:15:18
W4KBW 1 2018-07-01 09:21:06 2018-07-01 09:21:06 EL97OI > EL98HN 90.4 miles 338° 2018-07-01 09:21:06
N9JY-1 1 2018-07-08 07:36:53 2018-07-08 07:36:53 EL97RM > EL98OL 67.8 miles 348° 2018-07-08 07:36:53
N4BRF-3 1 2018-07-08 09:21:53 2018-07-08 09:21:53 EL97RL > EL96WI 82.4 miles 162° 2018-07-08 09:21:53
W4LCO-1 1 2018-07-08 07:44:39 2018-07-08 07:44:39 EL97OH > EL96CO 76.6 miles 233° 2018-07-08 07:44:39
W4RPT-1 2 2018-07-01 07:28:37 2018-07-08 07:40:56 EL97RN > EL88VM 119.9 miles 303° 2018-07-01 07:28:37
K4PKT-2 5 2018-07-01 09:29:29 2018-07-08 09:29:14 EL97SQ > EL97TC 38.2 miles 173° 2018-07-01 09:29:29
N4TDX 9 2018-07-01 09:23:39 2018-07-08 09:30:03 EL97OG > EL98OP 92.5 miles 360° 2018-07-08 07:45:20
KC9EQM 8 2018-07-01 07:24:24 2018-07-01 09:29:08 EL97OH > EL97TG 29.4 miles 92° 2018-07-01 09:18:40

Only position packets which were originated by the station are shown here. The range statistics show some extra long hops, because some digipeaters do not correctly add themselves to the digipeater path. Please check the raw packets.
About this site
This page shows real-time information collected from the Automatic Position Reporting System Internet network (APRS-IS). APRS is used by amateur (ham) radio operators to transmit real-time position information, weather data, telemetry and messages over the radio. A vehicle equipped with a GPS receiver, a VHF transmitter or HF transceiver and a small computer device called a tracker transmits it's location, speed and course in a small data packet, which is then received by a nearby iGate receiving site which forwards the packet on the Internet. Systems connected to the Internet can send information on the APRS-IS without a radio transmitter, or collect and display information transmitted anywhere in the world.
FAQ · Blog · Discussion group · Linking to aprs.fi · AIS sites · Service status · Database statistics · Advertising on aprs.fi · Technical details · API · Change log · Planned changes · Credits and thanks · Terms Of Service · iPhone/iPad APRS